Strona główna
METAR-TAF:

METAR-TAF

Lotnisko :

Port lotniczy Breda-Gilze Rijen

Gilze-Rijen, Holandia

Szerokość geograficzna: 51-34N, Długość geograficzna: 004-56E, wysokość: 15 m

Aktualna obserwacja pogody

Raport powstał 37 minut temu, godzina 05:55 UTC
Wiatr 4 kt od południowy zachód, zmienny między południowo-południowy zachód i zachód
Temperatura 16°C
Wilgotność 94%
Ciśnienie 1018 hPa
Widzialność: 8000 m
Zachmurzenie całkowite na wysokości 5600 ft
zamglenie

METAR: EHGR 210555Z AUTO 23004KT 200V270 8000 BR OVC056 16/15 Q1018 BLU

czas: 08:32 (06:32 UTC)


TAF: brakujący

Obserwacja i prognoza pogody dla ponad 4000 lotnisk (raport METAR i TAF).

Dostępne stacje oznaczono żółtymi i czerwonymi punktami na mapie.

Najedź kursorem aby zobaczyć nazwę stacji.

Kliknij aby zobaczyć obserwacje i prognozy pogody.

Aby zmienić mapę: kliknij na zielony przycisk z czarnym krzyżykiem, aby powiększyć; na zielony przycisk z myślnikiem, aby pomniejszyć; na zielone strzałki, aby przejść do map sąsiednich.


METAR-TAF: